sensor_id;sensor_type;location;lat;lon;timestamp;temperature;humidity
4840;DHT22;2434;48.486;7.964;2022-07-22T00:01:22;22.50;56.30
4840;DHT22;2434;48.486;7.964;2022-07-22T00:03:50;22.40;56.00
4840;DHT22;2434;48.486;7.964;2022-07-22T00:06:20;22.40;55.90
4840;DHT22;2434;48.486;7.964;2022-07-22T00:08:48;22.40;56.50
4840;DHT22;2434;48.486;7.964;2022-07-22T00:11:17;22.10;57.90
4840;DHT22;2434;48.486;7.964;2022-07-22T00:13:45;22.20;57.50
4840;DHT22;2434;48.486;7.964;2022-07-22T00:16:13;22.10;57.80
4840;DHT22;2434;48.486;7.964;2022-07-22T00:18:42;22.20;57.70
4840;DHT22;2434;48.486;7.964;2022-07-22T00:21:10;22.00;59.00
4840;DHT22;2434;48.486;7.964;2022-07-22T00:23:40;21.80;58.80
4840;DHT22;2434;48.486;7.964;2022-07-22T00:26:08;22.00;57.80
4840;DHT22;2434;48.486;7.964;2022-07-22T00:28:37;22.10;57.80
4840;DHT22;2434;48.486;7.964;2022-07-22T00:31:05;22.10;57.50
4840;DHT22;2434;48.486;7.964;2022-07-22T00:33:34;22.10;57.40
4840;DHT22;2434;48.486;7.964;2022-07-22T00:36:02;22.10;57.20
4840;DHT22;2434;48.486;7.964;2022-07-22T00:38:31;22.10;57.80
4840;DHT22;2434;48.486;7.964;2022-07-22T00:41:01;22.10;57.90
4840;DHT22;2434;48.486;7.964;2022-07-22T00:43:48;22.10;57.80
4840;DHT22;2434;48.486;7.964;2022-07-22T00:46:17;21.90;58.00
4840;DHT22;2434;48.486;7.964;2022-07-22T00:48:45;21.90;58.30
4840;DHT22;2434;48.486;7.964;2022-07-22T00:51:14;21.80;58.70
4840;DHT22;2434;48.486;7.964;2022-07-22T00:53:42;21.80;59.00
4840;DHT22;2434;48.486;7.964;2022-07-22T00:56:14;21.80;59.80
4840;DHT22;2434;48.486;7.964;2022-07-22T00:58:43;21.80;58.70
4840;DHT22;2434;48.486;7.964;2022-07-22T01:01:12;21.80;58.90
4840;DHT22;2434;48.486;7.964;2022-07-22T01:03:41;21.80;58.90
4840;DHT22;2434;48.486;7.964;2022-07-22T01:06:16;21.70;58.90
4840;DHT22;2434;48.486;7.964;2022-07-22T01:08:44;21.70;59.00
4840;DHT22;2434;48.486;7.964;2022-07-22T01:11:15;21.60;59.30
4840;DHT22;2434;48.486;7.964;2022-07-22T01:13:45;21.60;59.80
4840;DHT22;2434;48.486;7.964;2022-07-22T01:16:14;21.60;59.80
4840;DHT22;2434;48.486;7.964;2022-07-22T01:18:44;21.50;60.30
4840;DHT22;2434;48.486;7.964;2022-07-22T01:21:15;21.40;60.40
4840;DHT22;2434;48.486;7.964;2022-07-22T01:23:44;21.40;60.70
4840;DHT22;2434;48.486;7.964;2022-07-22T01:26:13;21.30;60.90
4840;DHT22;2434;48.486;7.964;2022-07-22T01:28:42;21.40;61.10
4840;DHT22;2434;48.486;7.964;2022-07-22T01:31:11;21.30;61.00
4840;DHT22;2434;48.486;7.964;2022-07-22T01:33:39;21.30;62.00
4840;DHT22;2434;48.486;7.964;2022-07-22T01:36:08;21.30;62.00
4840;DHT22;2434;48.486;7.964;2022-07-22T01:38:38;21.30;61.40
4840;DHT22;2434;48.486;7.964;2022-07-22T01:41:07;21.30;61.10
4840;DHT22;2434;48.486;7.964;2022-07-22T01:43:37;21.30;61.60
4840;DHT22;2434;48.486;7.964;2022-07-22T01:46:05;20.40;66.70
4840;DHT22;2434;48.486;7.964;2022-07-22T01:48:38;20.20;68.50
4840;DHT22;2434;48.486;7.964;2022-07-22T01:51:06;20.40;68.20
4840;DHT22;2434;48.486;7.964;2022-07-22T01:53:38;20.50;66.70
4840;DHT22;2434;48.486;7.964;2022-07-22T01:56:07;20.80;65.40
4840;DHT22;2434;48.486;7.964;2022-07-22T01:58:43;20.90;64.10
4840;DHT22;2434;48.486;7.964;2022-07-22T02:01:13;21.00;63.20
4840;DHT22;2434;48.486;7.964;2022-07-22T02:03:41;20.80;63.20
4840;DHT22;2434;48.486;7.964;2022-07-22T02:06:10;20.90;63.80
4840;DHT22;2434;48.486;7.964;2022-07-22T02:08:40;21.00;62.80
4840;DHT22;2434;48.486;7.964;2022-07-22T02:11:18;21.00;63.20
4840;DHT22;2434;48.486;7.964;2022-07-22T02:13:55;21.00;61.40
4840;DHT22;2434;48.486;7.964;2022-07-22T02:16:25;21.00;62.40
4840;DHT22;2434;48.486;7.964;2022-07-22T02:18:54;21.00;62.40
4840;DHT22;2434;48.486;7.964;2022-07-22T02:21:23;21.00;62.30
4840;DHT22;2434;48.486;7.964;2022-07-22T02:23:59;21.00;62.60
4840;DHT22;2434;48.486;7.964;2022-07-22T02:26:27;20.90;63.10
4840;DHT22;2434;48.486;7.964;2022-07-22T02:28:55;20.90;62.60
4840;DHT22;2434;48.486;7.964;2022-07-22T02:31:24;20.90;63.30
4840;DHT22;2434;48.486;7.964;2022-07-22T02:33:53;20.80;63.30
4840;DHT22;2434;48.486;7.964;2022-07-22T02:36:26;20.80;63.50
4840;DHT22;2434;48.486;7.964;2022-07-22T02:38:56;20.70;64.60
4840;DHT22;2434;48.486;7.964;2022-07-22T02:41:27;20.70;63.50
4840;DHT22;2434;48.486;7.964;2022-07-22T02:43:57;20.80;63.20
4840;DHT22;2434;48.486;7.964;2022-07-22T02:46:26;20.80;62.80
4840;DHT22;2434;48.486;7.964;2022-07-22T02:49:03;20.90;63.20
4840;DHT22;2434;48.486;7.964;2022-07-22T02:51:32;20.80;62.70
4840;DHT22;2434;48.486;7.964;2022-07-22T02:54:01;20.80;62.80
4840;DHT22;2434;48.486;7.964;2022-07-22T02:56:31;20.70;63.00
4840;DHT22;2434;48.486;7.964;2022-07-22T02:59:00;20.70;63.00
4840;DHT22;2434;48.486;7.964;2022-07-22T03:01:29;20.70;63.30
4840;DHT22;2434;48.486;7.964;2022-07-22T03:03:59;20.50;65.20
4840;DHT22;2434;48.486;7.964;2022-07-22T03:06:31;20.50;64.00
4840;DHT22;2434;48.486;7.964;2022-07-22T03:09:12;20.40;64.40
4840;DHT22;2434;48.486;7.964;2022-07-22T03:11:45;20.10;66.20
4840;DHT22;2434;48.486;7.964;2022-07-22T03:14:14;20.30;64.70
4840;DHT22;2434;48.486;7.964;2022-07-22T03:16:43;20.40;64.00
4840;DHT22;2434;48.486;7.964;2022-07-22T03:19:12;20.50;63.90
4840;DHT22;2434;48.486;7.964;2022-07-22T03:21:43;20.50;63.20
4840;DHT22;2434;48.486;7.964;2022-07-22T03:24:11;20.50;64.00
4840;DHT22;2434;48.486;7.964;2022-07-22T03:26:41;20.50;64.00
4840;DHT22;2434;48.486;7.964;2022-07-22T03:29:10;20.50;63.40
4840;DHT22;2434;48.486;7.964;2022-07-22T03:31:39;20.40;63.30
4840;DHT22;2434;48.486;7.964;2022-07-22T03:34:08;20.40;63.40
4840;DHT22;2434;48.486;7.964;2022-07-22T03:36:41;20.40;63.40
4840;DHT22;2434;48.486;7.964;2022-07-22T03:39:09;20.30;63.60
4840;DHT22;2434;48.486;7.964;2022-07-22T03:41:37;20.30;64.10
4840;DHT22;2434;48.486;7.964;2022-07-22T03:44:06;20.30;64.40
4840;DHT22;2434;48.486;7.964;2022-07-22T03:46:35;20.30;64.70
4840;DHT22;2434;48.486;7.964;2022-07-22T03:49:04;20.20;64.80
4840;DHT22;2434;48.486;7.964;2022-07-22T03:51:32;20.20;65.50
4840;DHT22;2434;48.486;7.964;2022-07-22T03:54:01;20.20;65.00
4840;DHT22;2434;48.486;7.964;2022-07-22T03:56:29;20.20;65.20
4840;DHT22;2434;48.486;7.964;2022-07-22T03:58:58;20.20;65.30
4840;DHT22;2434;48.486;7.964;2022-07-22T04:01:27;20.00;65.30
4840;DHT22;2434;48.486;7.964;2022-07-22T04:03:58;20.00;65.00
4840;DHT22;2434;48.486;7.964;2022-07-22T04:06:37;20.10;65.10
4840;DHT22;2434;48.486;7.964;2022-07-22T04:09:19;20.20;64.70
4840;DHT22;2434;48.486;7.964;2022-07-22T04:11:47;20.10;64.70
4840;DHT22;2434;48.486;7.964;2022-07-22T04:14:19;20.10;65.20
4840;DHT22;2434;48.486;7.964;2022-07-22T04:16:47;20.10;65.50
4840;DHT22;2434;48.486;7.964;2022-07-22T04:19:17;20.10;65.40
4840;DHT22;2434;48.486;7.964;2022-07-22T04:21:53;20.10;65.10
4840;DHT22;2434;48.486;7.964;2022-07-22T04:24:25;20.10;65.60
4840;DHT22;2434;48.486;7.964;2022-07-22T04:26:54;20.00;65.10
4840;DHT22;2434;48.486;7.964;2022-07-22T04:29:23;20.10;65.40
4840;DHT22;2434;48.486;7.964;2022-07-22T04:31:52;20.10;65.10
4840;DHT22;2434;48.486;7.964;2022-07-22T04:34:30;20.10;64.90
4840;DHT22;2434;48.486;7.964;2022-07-22T04:36:59;20.10;65.50
4840;DHT22;2434;48.486;7.964;2022-07-22T04:39:32;20.10;66.40
4840;DHT22;2434;48.486;7.964;2022-07-22T04:42:01;20.10;66.50
4840;DHT22;2434;48.486;7.964;2022-07-22T04:44:31;20.00;66.70
4840;DHT22;2434;48.486;7.964;2022-07-22T04:46:59;20.00;66.20
4840;DHT22;2434;48.486;7.964;2022-07-22T04:49:36;20.10;66.10
4840;DHT22;2434;48.486;7.964;2022-07-22T04:52:06;20.10;66.30
4840;DHT22;2434;48.486;7.964;2022-07-22T04:54:46;20.10;66.50
4840;DHT22;2434;48.486;7.964;2022-07-22T04:57:14;20.10;67.40
4840;DHT22;2434;48.486;7.964;2022-07-22T04:59:43;20.10;68.00
4840;DHT22;2434;48.486;7.964;2022-07-22T05:02:12;20.10;68.20
4840;DHT22;2434;48.486;7.964;2022-07-22T05:04:43;20.10;67.90
4840;DHT22;2434;48.486;7.964;2022-07-22T05:07:12;19.70;70.60
4840;DHT22;2434;48.486;7.964;2022-07-22T05:09:42;19.70;71.40
4840;DHT22;2434;48.486;7.964;2022-07-22T05:12:14;19.80;71.20
4840;DHT22;2434;48.486;7.964;2022-07-22T05:14:43;19.60;73.30
4840;DHT22;2434;48.486;7.964;2022-07-22T05:17:14;19.40;74.80
4840;DHT22;2434;48.486;7.964;2022-07-22T05:20:02;19.70;73.20
4840;DHT22;2434;48.486;7.964;2022-07-22T05:22:32;19.70;72.50
4840;DHT22;2434;48.486;7.964;2022-07-22T05:25:10;19.40;75.50
4840;DHT22;2434;48.486;7.964;2022-07-22T05:27:49;19.20;77.60
4840;DHT22;2434;48.486;7.964;2022-07-22T05:30:23;19.00;78.30
4840;DHT22;2434;48.486;7.964;2022-07-22T05:32:52;18.70;80.00
4840;DHT22;2434;48.486;7.964;2022-07-22T05:35:48;19.00;78.30
4840;DHT22;2434;48.486;7.964;2022-07-22T05:38:18;19.00;79.60
4840;DHT22;2434;48.486;7.964;2022-07-22T05:40:46;19.40;76.20
4840;DHT22;2434;48.486;7.964;2022-07-22T05:43:14;19.70;75.30
4840;DHT22;2434;48.486;7.964;2022-07-22T05:45:43;19.60;76.80
4840;DHT22;2434;48.486;7.964;2022-07-22T05:48:11;19.50;76.60
4840;DHT22;2434;48.486;7.964;2022-07-22T05:50:40;19.30;78.50
4840;DHT22;2434;48.486;7.964;2022-07-22T05:53:10;19.30;79.40
4840;DHT22;2434;48.486;7.964;2022-07-22T05:55:39;19.20;79.20
4840;DHT22;2434;48.486;7.964;2022-07-22T05:58:07;19.10;79.50
4840;DHT22;2434;48.486;7.964;2022-07-22T06:00:36;19.00;82.40
4840;DHT22;2434;48.486;7.964;2022-07-22T06:03:06;19.00;82.10
4840;DHT22;2434;48.486;7.964;2022-07-22T06:05:40;18.90;83.10
4840;DHT22;2434;48.486;7.964;2022-07-22T06:08:12;18.90;84.00
4840;DHT22;2434;48.486;7.964;2022-07-22T06:10:47;18.80;84.00
4840;DHT22;2434;48.486;7.964;2022-07-22T06:13:16;18.80;84.20
4840;DHT22;2434;48.486;7.964;2022-07-22T06:15:44;18.90;84.00
4840;DHT22;2434;48.486;7.964;2022-07-22T06:18:14;19.00;84.10
4840;DHT22;2434;48.486;7.964;2022-07-22T06:20:43;19.10;83.70
4840;DHT22;2434;48.486;7.964;2022-07-22T06:23:13;19.00;83.70
4840;DHT22;2434;48.486;7.964;2022-07-22T06:25:42;19.00;83.50
4840;DHT22;2434;48.486;7.964;2022-07-22T06:28:20;19.20;82.40
4840;DHT22;2434;48.486;7.964;2022-07-22T06:30:49;19.30;82.90
4840;DHT22;2434;48.486;7.964;2022-07-22T06:33:18;19.20;82.10
4840;DHT22;2434;48.486;7.964;2022-07-22T06:35:47;19.30;81.50
4840;DHT22;2434;48.486;7.964;2022-07-22T06:38:18;19.40;80.60
4840;DHT22;2434;48.486;7.964;2022-07-22T06:41:11;19.40;80.90
4840;DHT22;2434;48.486;7.964;2022-07-22T06:44:10;19.50;80.80
4840;DHT22;2434;48.486;7.964;2022-07-22T06:46:47;19.50;80.30
4840;DHT22;2434;48.486;7.964;2022-07-22T06:49:17;19.50;80.80
4840;DHT22;2434;48.486;7.964;2022-07-22T06:51:47;19.60;81.20
4840;DHT22;2434;48.486;7.964;2022-07-22T06:54:18;19.70;79.60
4840;DHT22;2434;48.486;7.964;2022-07-22T06:56:48;19.70;79.50
4840;DHT22;2434;48.486;7.964;2022-07-22T06:59:20;19.80;78.90
4840;DHT22;2434;48.486;7.964;2022-07-22T07:01:49;19.70;79.20
4840;DHT22;2434;48.486;7.964;2022-07-22T07:04:19;19.90;78.60
4840;DHT22;2434;48.486;7.964;2022-07-22T07:06:49;19.90;78.50
4840;DHT22;2434;48.486;7.964;2022-07-22T07:09:42;19.90;79.10
4840;DHT22;2434;48.486;7.964;2022-07-22T07:12:19;20.00;78.80
4840;DHT22;2434;48.486;7.964;2022-07-22T07:15:06;20.10;78.40
4840;DHT22;2434;48.486;7.964;2022-07-22T07:17:59;20.20;77.80
4840;DHT22;2434;48.486;7.964;2022-07-22T07:20:28;20.20;78.50
4840;DHT22;2434;48.486;7.964;2022-07-22T07:23:00;20.30;76.90
4840;DHT22;2434;48.486;7.964;2022-07-22T07:25:31;20.20;77.30
4840;DHT22;2434;48.486;7.964;2022-07-22T07:28:00;20.30;78.00
4840;DHT22;2434;48.486;7.964;2022-07-22T07:30:51;20.40;77.90
4840;DHT22;2434;48.486;7.964;2022-07-22T07:33:20;20.60;77.10
4840;DHT22;2434;48.486;7.964;2022-07-22T07:35:50;20.60;75.50
4840;DHT22;2434;48.486;7.964;2022-07-22T07:38:27;20.70;75.30
4840;DHT22;2434;48.486;7.964;2022-07-22T07:40:58;20.90;75.90
4840;DHT22;2434;48.486;7.964;2022-07-22T07:43:26;21.00;76.60
4840;DHT22;2434;48.486;7.964;2022-07-22T07:45:54;21.00;74.40
4840;DHT22;2434;48.486;7.964;2022-07-22T07:48:23;21.00;73.70
4840;DHT22;2434;48.486;7.964;2022-07-22T07:50:54;21.00;73.30
4840;DHT22;2434;48.486;7.964;2022-07-22T07:53:22;21.40;74.90
4840;DHT22;2434;48.486;7.964;2022-07-22T07:55:51;21.30;72.80
4840;DHT22;2434;48.486;7.964;2022-07-22T07:58:20;21.40;71.30
4840;DHT22;2434;48.486;7.964;2022-07-22T08:00:49;21.40;71.10
4840;DHT22;2434;48.486;7.964;2022-07-22T08:03:19;21.50;71.90
4840;DHT22;2434;48.486;7.964;2022-07-22T08:05:47;21.60;72.10
4840;DHT22;2434;48.486;7.964;2022-07-22T08:08:19;21.60;71.40
4840;DHT22;2434;48.486;7.964;2022-07-22T08:10:49;21.60;71.10
4840;DHT22;2434;48.486;7.964;2022-07-22T08:13:47;21.70;71.00
4840;DHT22;2434;48.486;7.964;2022-07-22T08:16:41;21.90;70.10
4840;DHT22;2434;48.486;7.964;2022-07-22T08:19:10;21.90;70.30
4840;DHT22;2434;48.486;7.964;2022-07-22T08:21:41;22.00;70.50
4840;DHT22;2434;48.486;7.964;2022-07-22T08:24:23;22.00;72.00
4840;DHT22;2434;48.486;7.964;2022-07-22T08:26:51;22.20;71.50
4840;DHT22;2434;48.486;7.964;2022-07-22T08:29:21;22.40;69.10
4840;DHT22;2434;48.486;7.964;2022-07-22T08:31:50;22.20;68.30
4840;DHT22;2434;48.486;7.964;2022-07-22T08:34:19;22.40;69.00
4840;DHT22;2434;48.486;7.964;2022-07-22T08:36:48;22.50;67.40
4840;DHT22;2434;48.486;7.964;2022-07-22T08:39:16;22.60;66.60
4840;DHT22;2434;48.486;7.964;2022-07-22T08:41:50;22.60;66.20
4840;DHT22;2434;48.486;7.964;2022-07-22T08:44:20;22.70;66.20
4840;DHT22;2434;48.486;7.964;2022-07-22T08:46:49;22.90;66.30
4840;DHT22;2434;48.486;7.964;2022-07-22T08:49:19;23.00;63.20
4840;DHT22;2434;48.486;7.964;2022-07-22T08:51:51;22.80;65.00
4840;DHT22;2434;48.486;7.964;2022-07-22T08:54:22;22.90;64.80
4840;DHT22;2434;48.486;7.964;2022-07-22T08:56:51;22.90;65.10
4840;DHT22;2434;48.486;7.964;2022-07-22T08:59:25;23.00;64.30
4840;DHT22;2434;48.486;7.964;2022-07-22T09:02:04;23.00;65.20
4840;DHT22;2434;48.486;7.964;2022-07-22T09:04:52;23.10;65.70
4840;DHT22;2434;48.486;7.964;2022-07-22T09:07:28;23.30;63.40
4840;DHT22;2434;48.486;7.964;2022-07-22T09:10:04;23.30;63.40
4840;DHT22;2434;48.486;7.964;2022-07-22T09:12:53;23.40;63.10
4840;DHT22;2434;48.486;7.964;2022-07-22T09:15:48;23.40;63.80
4840;DHT22;2434;48.486;7.964;2022-07-22T09:18:45;23.60;62.50
4840;DHT22;2434;48.486;7.964;2022-07-22T09:21:29;23.70;62.40
4840;DHT22;2434;48.486;7.964;2022-07-22T09:24:08;23.80;61.00
4840;DHT22;2434;48.486;7.964;2022-07-22T09:26:38;23.90;60.60
4840;DHT22;2434;48.486;7.964;2022-07-22T09:29:30;24.00;59.60
4840;DHT22;2434;48.486;7.964;2022-07-22T09:32:39;24.00;60.20
4840;DHT22;2434;48.486;7.964;2022-07-22T09:35:23;24.00;61.00
4840;DHT22;2434;48.486;7.964;2022-07-22T09:37:55;24.20;59.50
4840;DHT22;2434;48.486;7.964;2022-07-22T09:40:25;24.20;57.90
4840;DHT22;2434;48.486;7.964;2022-07-22T09:42:57;24.60;58.30
4840;DHT22;2434;48.486;7.964;2022-07-22T09:45:27;24.50;57.90
4840;DHT22;2434;48.486;7.964;2022-07-22T09:47:58;24.60;57.80
4840;DHT22;2434;48.486;7.964;2022-07-22T09:50:51;24.60;56.00
4840;DHT22;2434;48.486;7.964;2022-07-22T09:53:29;24.80;56.50
4840;DHT22;2434;48.486;7.964;2022-07-22T09:56:23;24.90;58.00
4840;DHT22;2434;48.486;7.964;2022-07-22T09:58:52;25.00;56.10
4840;DHT22;2434;48.486;7.964;2022-07-22T10:01:28;25.10;55.70
4840;DHT22;2434;48.486;7.964;2022-07-22T10:03:59;25.20;55.80
4840;DHT22;2434;48.486;7.964;2022-07-22T10:06:29;25.40;55.10
4840;DHT22;2434;48.486;7.964;2022-07-22T10:08:58;25.20;54.60
4840;DHT22;2434;48.486;7.964;2022-07-22T10:11:37;25.40;56.10
4840;DHT22;2434;48.486;7.964;2022-07-22T10:14:05;25.60;54.80
4840;DHT22;2434;48.486;7.964;2022-07-22T10:16:36;25.80;54.20
4840;DHT22;2434;48.486;7.964;2022-07-22T10:19:06;25.60;53.30
4840;DHT22;2434;48.486;7.964;2022-07-22T10:21:35;25.60;52.50
4840;DHT22;2434;48.486;7.964;2022-07-22T10:24:09;25.70;52.40
4840;DHT22;2434;48.486;7.964;2022-07-22T10:26:50;26.00;54.50
4840;DHT22;2434;48.486;7.964;2022-07-22T10:29:26;25.80;52.70
4840;DHT22;2434;48.486;7.964;2022-07-22T10:32:22;25.90;51.30
4840;DHT22;2434;48.486;7.964;2022-07-22T10:35:23;25.80;53.00
4840;DHT22;2434;48.486;7.964;2022-07-22T10:37:59;26.00;53.50
4840;DHT22;2434;48.486;7.964;2022-07-22T10:40:30;26.10;53.00
4840;DHT22;2434;48.486;7.964;2022-07-22T10:43:11;26.10;53.50
4840;DHT22;2434;48.486;7.964;2022-07-22T10:45:42;26.50;52.80
4840;DHT22;2434;48.486;7.964;2022-07-22T10:48:13;26.40;51.00
4840;DHT22;2434;48.486;7.964;2022-07-22T10:50:52;26.40;50.80
4840;DHT22;2434;48.486;7.964;2022-07-22T10:53:24;26.30;51.80
4840;DHT22;2434;48.486;7.964;2022-07-22T10:56:18;26.60;51.50
4840;DHT22;2434;48.486;7.964;2022-07-22T10:58:48;26.60;50.50
4840;DHT22;2434;48.486;7.964;2022-07-22T11:01:20;26.80;51.00
4840;DHT22;2434;48.486;7.964;2022-07-22T11:03:49;27.00;49.00
4840;DHT22;2434;48.486;7.964;2022-07-22T11:06:22;26.80;47.20
4840;DHT22;2434;48.486;7.964;2022-07-22T11:08:54;26.90;48.40
4840;DHT22;2434;48.486;7.964;2022-07-22T11:11:42;27.00;48.50
4840;DHT22;2434;48.486;7.964;2022-07-22T11:14:20;27.20;49.50
4840;DHT22;2434;48.486;7.964;2022-07-22T11:16:52;27.20;48.40
4840;DHT22;2434;48.486;7.964;2022-07-22T11:19:23;27.00;48.40
4840;DHT22;2434;48.486;7.964;2022-07-22T11:21:55;27.20;47.90
4840;DHT22;2434;48.486;7.964;2022-07-22T11:24:25;27.30;48.10
4840;DHT22;2434;48.486;7.964;2022-07-22T11:26:56;27.40;49.00
4840;DHT22;2434;48.486;7.964;2022-07-22T11:29:33;27.40;47.10
4840;DHT22;2434;48.486;7.964;2022-07-22T11:32:03;27.30;46.80
4840;DHT22;2434;48.486;7.964;2022-07-22T11:34:32;27.10;46.80
4840;DHT22;2434;48.486;7.964;2022-07-22T11:37:02;27.50;47.40
4840;DHT22;2434;48.486;7.964;2022-07-22T11:39:31;27.50;47.00
4840;DHT22;2434;48.486;7.964;2022-07-22T11:42:00;27.60;46.10
4840;DHT22;2434;48.486;7.964;2022-07-22T11:44:31;27.60;45.10
4840;DHT22;2434;48.486;7.964;2022-07-22T11:47:00;27.50;45.00
4840;DHT22;2434;48.486;7.964;2022-07-22T11:49:30;27.50;44.40
4840;DHT22;2434;48.486;7.964;2022-07-22T11:52:02;27.40;43.90
4840;DHT22;2434;48.486;7.964;2022-07-22T11:54:30;27.50;47.00
4840;DHT22;2434;48.486;7.964;2022-07-22T11:56:59;27.80;44.60
4840;DHT22;2434;48.486;7.964;2022-07-22T11:59:27;27.90;44.90
4840;DHT22;2434;48.486;7.964;2022-07-22T12:01:55;27.70;43.10
4840;DHT22;2434;48.486;7.964;2022-07-22T12:04:25;28.00;44.00
4840;DHT22;2434;48.486;7.964;2022-07-22T12:06:54;27.90;43.50
4840;DHT22;2434;48.486;7.964;2022-07-22T12:09:25;27.90;45.70
4840;DHT22;2434;48.486;7.964;2022-07-22T12:11:56;28.10;44.50
4840;DHT22;2434;48.486;7.964;2022-07-22T12:14:26;27.90;40.60
4840;DHT22;2434;48.486;7.964;2022-07-22T12:16:58;28.10;43.10
4840;DHT22;2434;48.486;7.964;2022-07-22T12:19:28;28.20;40.70
4840;DHT22;2434;48.486;7.964;2022-07-22T12:21:58;28.00;40.30
4840;DHT22;2434;48.486;7.964;2022-07-22T12:24:31;28.20;41.20
4840;DHT22;2434;48.486;7.964;2022-07-22T12:27:00;28.40;41.90
4840;DHT22;2434;48.486;7.964;2022-07-22T12:29:40;28.50;40.60
4840;DHT22;2434;48.486;7.964;2022-07-22T12:32:14;28.30;40.90
4840;DHT22;2434;48.486;7.964;2022-07-22T12:34:45;28.30;40.90
4840;DHT22;2434;48.486;7.964;2022-07-22T12:37:17;28.50;42.80
4840;DHT22;2434;48.486;7.964;2022-07-22T12:39:57;28.70;37.80
4840;DHT22;2434;48.486;7.964;2022-07-22T12:42:27;28.60;37.00
4840;DHT22;2434;48.486;7.964;2022-07-22T12:45:02;28.50;42.60
4840;DHT22;2434;48.486;7.964;2022-07-22T12:47:46;28.60;37.80
4840;DHT22;2434;48.486;7.964;2022-07-22T12:50:23;28.80;38.10
4840;DHT22;2434;48.486;7.964;2022-07-22T12:52:54;28.60;37.80
4840;DHT22;2434;48.486;7.964;2022-07-22T12:55:45;28.80;42.80
4840;DHT22;2434;48.486;7.964;2022-07-22T12:58:14;29.00;38.70
4840;DHT22;2434;48.486;7.964;2022-07-22T13:00:49;29.00;38.70
4840;DHT22;2434;48.486;7.964;2022-07-22T13:03:18;29.00;37.80
4840;DHT22;2434;48.486;7.964;2022-07-22T13:05:47;29.10;39.20
4840;DHT22;2434;48.486;7.964;2022-07-22T13:08:16;29.10;38.00
4840;DHT22;2434;48.486;7.964;2022-07-22T13:10:49;29.20;36.90
4840;DHT22;2434;48.486;7.964;2022-07-22T13:13:18;29.10;36.80
4840;DHT22;2434;48.486;7.964;2022-07-22T13:15:47;29.10;36.30
4840;DHT22;2434;48.486;7.964;2022-07-22T13:18:16;29.20;37.30
4840;DHT22;2434;48.486;7.964;2022-07-22T13:20:45;29.30;36.80
4840;DHT22;2434;48.486;7.964;2022-07-22T13:23:14;29.70;37.00
4840;DHT22;2434;48.486;7.964;2022-07-22T13:25:42;29.30;34.50
4840;DHT22;2434;48.486;7.964;2022-07-22T13:28:12;29.20;35.80
4840;DHT22;2434;48.486;7.964;2022-07-22T13:30:40;29.10;35.70
4840;DHT22;2434;48.486;7.964;2022-07-22T13:33:09;29.10;36.10
4840;DHT22;2434;48.486;7.964;2022-07-22T13:35:37;29.20;35.00
4840;DHT22;2434;48.486;7.964;2022-07-22T13:38:05;29.20;34.80
4840;DHT22;2434;48.486;7.964;2022-07-22T13:40:41;29.40;35.40
4840;DHT22;2434;48.486;7.964;2022-07-22T13:43:09;29.30;34.80
4840;DHT22;2434;48.486;7.964;2022-07-22T13:45:42;29.40;35.10
4840;DHT22;2434;48.486;7.964;2022-07-22T13:48:11;29.40;35.90
4840;DHT22;2434;48.486;7.964;2022-07-22T13:50:39;29.60;35.00
4840;DHT22;2434;48.486;7.964;2022-07-22T13:53:07;29.50;34.20
4840;DHT22;2434;48.486;7.964;2022-07-22T13:55:37;29.30;33.80
4840;DHT22;2434;48.486;7.964;2022-07-22T13:58:06;29.50;37.40
4840;DHT22;2434;48.486;7.964;2022-07-22T14:00:35;29.90;35.50
4840;DHT22;2434;48.486;7.964;2022-07-22T14:03:06;29.90;35.30
4840;DHT22;2434;48.486;7.964;2022-07-22T14:05:35;29.90;32.80
4840;DHT22;2434;48.486;7.964;2022-07-22T14:08:04;29.70;34.70
4840;DHT22;2434;48.486;7.964;2022-07-22T14:10:32;29.80;36.40
4840;DHT22;2434;48.486;7.964;2022-07-22T14:13:00;29.90;34.60
4840;DHT22;2434;48.486;7.964;2022-07-22T14:15:29;29.80;32.40
4840;DHT22;2434;48.486;7.964;2022-07-22T14:17:57;29.70;32.90
4840;DHT22;2434;48.486;7.964;2022-07-22T14:20:27;29.70;33.70
4840;DHT22;2434;48.486;7.964;2022-07-22T14:22:56;29.70;33.50
4840;DHT22;2434;48.486;7.964;2022-07-22T14:25:24;29.70;35.70
4840;DHT22;2434;48.486;7.964;2022-07-22T14:27:53;29.90;33.80
4840;DHT22;2434;48.486;7.964;2022-07-22T14:30:41;30.00;34.00
4840;DHT22;2434;48.486;7.964;2022-07-22T14:33:10;29.90;33.70
4840;DHT22;2434;48.486;7.964;2022-07-22T14:35:40;29.80;33.50
4840;DHT22;2434;48.486;7.964;2022-07-22T14:38:08;29.90;35.30
4840;DHT22;2434;48.486;7.964;2022-07-22T14:40:36;30.00;37.40
4840;DHT22;2434;48.486;7.964;2022-07-22T14:43:05;30.10;32.90
4840;DHT22;2434;48.486;7.964;2022-07-22T14:45:53;30.30;33.10
4840;DHT22;2434;48.486;7.964;2022-07-22T14:48:22;30.20;33.40
4840;DHT22;2434;48.486;7.964;2022-07-22T14:50:51;30.20;35.70
4840;DHT22;2434;48.486;7.964;2022-07-22T14:53:20;30.30;37.30
4840;DHT22;2434;48.486;7.964;2022-07-22T14:55:48;30.50;33.70
4840;DHT22;2434;48.486;7.964;2022-07-22T14:58:16;30.30;34.30
4840;DHT22;2434;48.486;7.964;2022-07-22T15:00:45;30.40;36.20
4840;DHT22;2434;48.486;7.964;2022-07-22T15:03:14;30.40;34.50
4840;DHT22;2434;48.486;7.964;2022-07-22T15:05:42;30.20;32.80
4840;DHT22;2434;48.486;7.964;2022-07-22T15:08:12;30.10;32.70
4840;DHT22;2434;48.486;7.964;2022-07-22T15:10:40;30.30;33.00
4840;DHT22;2434;48.486;7.964;2022-07-22T15:13:09;30.20;31.50
4840;DHT22;2434;48.486;7.964;2022-07-22T15:15:37;30.30;32.00
4840;DHT22;2434;48.486;7.964;2022-07-22T15:18:05;30.10;32.30
4840;DHT22;2434;48.486;7.964;2022-07-22T15:20:33;30.30;32.20
4840;DHT22;2434;48.486;7.964;2022-07-22T15:23:04;30.10;34.00
4840;DHT22;2434;48.486;7.964;2022-07-22T15:25:37;30.20;34.40
4840;DHT22;2434;48.486;7.964;2022-07-22T15:28:05;30.10;32.40
4840;DHT22;2434;48.486;7.964;2022-07-22T15:30:55;30.00;33.10
4840;DHT22;2434;48.486;7.964;2022-07-22T15:33:24;30.00;32.40
4840;DHT22;2434;48.486;7.964;2022-07-22T15:36:02;30.00;34.50
4840;DHT22;2434;48.486;7.964;2022-07-22T15:38:32;30.10;33.20
4840;DHT22;2434;48.486;7.964;2022-07-22T15:41:02;30.00;33.60
4840;DHT22;2434;48.486;7.964;2022-07-22T15:43:31;30.00;31.60
4840;DHT22;2434;48.486;7.964;2022-07-22T15:45:59;30.00;31.70
4840;DHT22;2434;48.486;7.964;2022-07-22T15:48:28;30.00;33.70
4840;DHT22;2434;48.486;7.964;2022-07-22T15:50:56;30.10;33.60
4840;DHT22;2434;48.486;7.964;2022-07-22T15:53:30;30.10;33.00
4840;DHT22;2434;48.486;7.964;2022-07-22T15:55:58;30.20;30.30
4840;DHT22;2434;48.486;7.964;2022-07-22T15:58:28;30.10;32.60
4840;DHT22;2434;48.486;7.964;2022-07-22T16:01:34;30.10;31.30
4840;DHT22;2434;48.486;7.964;2022-07-22T16:04:03;30.10;32.90
4840;DHT22;2434;48.486;7.964;2022-07-22T16:06:31;30.10;33.30
4840;DHT22;2434;48.486;7.964;2022-07-22T16:09:01;30.10;33.50
4840;DHT22;2434;48.486;7.964;2022-07-22T16:11:31;30.10;31.00
4840;DHT22;2434;48.486;7.964;2022-07-22T16:14:01;30.20;31.00
4840;DHT22;2434;48.486;7.964;2022-07-22T16:16:30;30.20;31.20
4840;DHT22;2434;48.486;7.964;2022-07-22T16:18:59;30.30;31.90
4840;DHT22;2434;48.486;7.964;2022-07-22T16:21:28;30.30;31.90
4840;DHT22;2434;48.486;7.964;2022-07-22T16:23:56;30.30;32.00
4840;DHT22;2434;48.486;7.964;2022-07-22T16:26:25;30.50;32.80
4840;DHT22;2434;48.486;7.964;2022-07-22T16:28:53;30.60;31.20
4840;DHT22;2434;48.486;7.964;2022-07-22T16:31:23;30.40;30.10
4840;DHT22;2434;48.486;7.964;2022-07-22T16:33:51;30.50;30.50